CCA1617 ZBAA-ZYTL
Flight info
| Callsign | CCA1617 |
|---|---|
| Flight time | 0h 54m |
| Altitude | 22600 |
| Route | MUGLO9Z MUGLO W34 ANRAT W575 INTIV INT17A |
| Aircraft | A20N/M-SDE2E3FGHIRWXY/LB1 |
Departure
| Time | 2026-05-07 14:45 |
|---|---|
| Airport | Beijing Capital International Airport (ZBAA) |
Arrival
| Time | 2026-05-07 15:39 |
|---|---|
| Airport | Dalian Zhoushuizi International Airport (ZYTL) |
| Time | Latitude | Longitude | Altitude | Speed | Heading |
|---|---|---|---|---|---|
| 2026-05-07 14:22 | 40.05530 | 116.60738 | 122 ft | 0 kts | 109° |
| 2026-05-07 14:35 | 40.05531 | 116.60734 | 122 ft | 2 kts | 110° |
| 2026-05-07 14:35 | 40.05536 | 116.60716 | 122 ft | 2 kts | 109° |
| 2026-05-07 14:35 | 40.05541 | 116.60696 | 122 ft | 2 kts | 109° |
| 2026-05-07 14:36 | 40.05546 | 116.60678 | 122 ft | 2 kts | 109° |
| 2026-05-07 14:36 | 40.05551 | 116.60660 | 122 ft | 2 kts | 109° |
| 2026-05-07 14:36 | 40.05557 | 116.60641 | 122 ft | 2 kts | 109° |
| 2026-05-07 14:36 | 40.05557 | 116.60622 | 122 ft | 2 kts | 77° |
| 2026-05-07 14:37 | 40.05551 | 116.60604 | 122 ft | 2 kts | 52° |
| 2026-05-07 14:37 | 40.05527 | 116.60583 | 122 ft | 2 kts | 30° |
| 2026-05-07 14:37 | 40.05514 | 116.60573 | 122 ft | 2 kts | 28° |
| 2026-05-07 14:38 | 40.05505 | 116.60566 | 122 ft | 0 kts | 37° |
| 2026-05-07 14:39 | 40.05515 | 116.60576 | 122 ft | 3 kts | 33° |
| 2026-05-07 14:40 | 40.05544 | 116.60585 | 122 ft | 10 kts | 354° |
| 2026-05-07 14:40 | 40.05564 | 116.60487 | 122 ft | 13 kts | 262° |
| 2026-05-07 14:40 | 40.05555 | 116.60367 | 122 ft | 13 kts | 263° |
| 2026-05-07 14:40 | 40.05542 | 116.60241 | 122 ft | 14 kts | 263° |
| 2026-05-07 14:41 | 40.05539 | 116.60208 | 122 ft | 0 kts | 262° |
| 2026-05-07 14:43 | 40.05539 | 116.60207 | 122 ft | 0 kts | 262° |
| 2026-05-07 14:43 | 40.05533 | 116.60152 | 122 ft | 13 kts | 263° |
| 2026-05-07 14:44 | 40.05580 | 116.60017 | 122 ft | 18 kts | 330° |
| 2026-05-07 14:44 | 40.05706 | 116.59988 | 122 ft | 18 kts | 353° |
| 2026-05-07 14:44 | 40.06040 | 116.59933 | 122 ft | 85 kts | 352° |
| 2026-05-07 14:44 | 40.06862 | 116.59811 | 123 ft | 148 kts | 353° |
| 2026-05-07 14:45 | 40.08015 | 116.59634 | 418 ft | 173 kts | 353° |
| 2026-05-07 14:45 | 40.09193 | 116.59452 | 1090 ft | 174 kts | 353° |
| 2026-05-07 14:45 | 40.10386 | 116.59264 | 1821 ft | 175 kts | 353° |
| 2026-05-07 14:45 | 40.11606 | 116.59074 | 2391 ft | 187 kts | 353° |
| 2026-05-07 14:46 | 40.12958 | 116.58863 | 2911 ft | 204 kts | 353° |
| 2026-05-07 14:46 | 40.14426 | 116.58632 | 3420 ft | 222 kts | 352° |
| 2026-05-07 14:46 | 40.16036 | 116.58378 | 3819 ft | 244 kts | 352° |
| 2026-05-07 14:46 | 40.17771 | 116.58103 | 4314 ft | 262 kts | 352° |
| 2026-05-07 14:47 | 40.19620 | 116.57812 | 5023 ft | 271 kts | 351° |
| 2026-05-07 14:47 | 40.21476 | 116.57543 | 5834 ft | 274 kts | 355° |
| 2026-05-07 14:47 | 40.23357 | 116.57968 | 6394 ft | 283 kts | 24° |
| 2026-05-07 14:47 | 40.24891 | 116.59665 | 7093 ft | 295 kts | 55° |
| 2026-05-07 14:48 | 40.25628 | 116.62143 | 7963 ft | 300 kts | 81° |
| 2026-05-07 14:48 | 40.25846 | 116.64834 | 8736 ft | 306 kts | 84° |
| 2026-05-07 14:48 | 40.26035 | 116.67611 | 9475 ft | 313 kts | 84° |
| 2026-05-07 14:48 | 40.26249 | 116.70465 | 10251 ft | 318 kts | 84° |
| 2026-05-07 14:49 | 40.26487 | 116.73371 | 10821 ft | 332 kts | 83° |
| 2026-05-07 14:49 | 40.26752 | 116.76445 | 11242 ft | 350 kts | 83° |
| 2026-05-07 14:49 | 40.27037 | 116.79692 | 11634 ft | 369 kts | 83° |
| 2026-05-07 14:49 | 40.27338 | 116.83115 | 11990 ft | 387 kts | 83° |
| 2026-05-07 14:50 | 40.27648 | 116.86664 | 12301 ft | 405 kts | 83° |
| 2026-05-07 14:50 | 40.27975 | 116.90445 | 12610 ft | 422 kts | 83° |
| 2026-05-07 14:50 | 40.28251 | 116.94257 | 13106 ft | 431 kts | 89° |
| 2026-05-07 14:50 | 40.27781 | 116.98115 | 13718 ft | 435 kts | 111° |
| 2026-05-07 14:51 | 40.26282 | 117.01525 | 14425 ft | 432 kts | 133° |
| 2026-05-07 14:51 | 40.24016 | 117.04033 | 15112 ft | 427 kts | 153° |
| 2026-05-07 14:51 | 40.21278 | 117.05389 | 15762 ft | 420 kts | 172° |
| 2026-05-07 14:51 | 40.18385 | 117.05902 | 16424 ft | 420 kts | 177° |
| 2026-05-07 14:52 | 40.15479 | 117.06329 | 17037 ft | 424 kts | 177° |
| 2026-05-07 14:52 | 40.12568 | 117.06765 | 17635 ft | 427 kts | 177° |
| 2026-05-07 14:52 | 40.09593 | 117.07227 | 18245 ft | 430 kts | 177° |
| 2026-05-07 14:52 | 40.06609 | 117.07708 | 18813 ft | 434 kts | 176° |
| 2026-05-07 14:53 | 40.03613 | 117.08200 | 19349 ft | 437 kts | 177° |
| 2026-05-07 14:53 | 40.00573 | 117.08706 | 19871 ft | 441 kts | 177° |
| 2026-05-07 14:53 | 39.97532 | 117.09212 | 20382 ft | 444 kts | 177° |
| 2026-05-07 14:53 | 39.94483 | 117.09722 | 20887 ft | 447 kts | 177° |
| 2026-05-07 14:54 | 39.91349 | 117.10246 | 21384 ft | 451 kts | 177° |
| 2026-05-07 14:54 | 39.88267 | 117.10761 | 21856 ft | 454 kts | 177° |
| 2026-05-07 14:54 | 39.85107 | 117.11289 | 22309 ft | 458 kts | 177° |
| 2026-05-07 14:54 | 39.81944 | 117.11816 | 22575 ft | 460 kts | 177° |
| 2026-05-07 14:55 | 39.78768 | 117.12347 | 22587 ft | 459 kts | 177° |
| 2026-05-07 14:55 | 39.75589 | 117.12877 | 22588 ft | 459 kts | 177° |
| 2026-05-07 14:55 | 39.72433 | 117.13403 | 22588 ft | 459 kts | 177° |
| 2026-05-07 14:55 | 39.69251 | 117.13933 | 22588 ft | 459 kts | 177° |
| 2026-05-07 14:56 | 39.66084 | 117.14461 | 22589 ft | 459 kts | 177° |
| 2026-05-07 14:56 | 39.62922 | 117.14987 | 22588 ft | 459 kts | 177° |
| 2026-05-07 14:56 | 39.59743 | 117.15514 | 22588 ft | 459 kts | 177° |
| 2026-05-07 14:56 | 39.56609 | 117.16035 | 22588 ft | 459 kts | 177° |
| 2026-05-07 14:57 | 39.53428 | 117.16561 | 22588 ft | 459 kts | 177° |
| 2026-05-07 14:57 | 39.50267 | 117.17179 | 22585 ft | 462 kts | 173° |
| 2026-05-07 14:57 | 39.47140 | 117.18307 | 22587 ft | 467 kts | 165° |
| 2026-05-07 14:57 | 39.44167 | 117.19962 | 22588 ft | 473 kts | 157° |
| 2026-05-07 14:58 | 39.41292 | 117.22073 | 22590 ft | 475 kts | 153° |
| 2026-05-07 14:58 | 39.38452 | 117.24290 | 22589 ft | 475 kts | 153° |
| 2026-05-07 14:58 | 39.35621 | 117.26522 | 22588 ft | 475 kts | 152° |
| 2026-05-07 14:58 | 39.32784 | 117.28748 | 22588 ft | 475 kts | 153° |
| 2026-05-07 14:59 | 39.29970 | 117.30940 | 22588 ft | 475 kts | 153° |
| 2026-05-07 14:59 | 39.27135 | 117.33141 | 22588 ft | 475 kts | 153° |
| 2026-05-07 14:59 | 39.24318 | 117.35317 | 22588 ft | 475 kts | 153° |
| 2026-05-07 14:59 | 39.21484 | 117.37503 | 22588 ft | 475 kts | 153° |
| 2026-05-07 15:00 | 39.18651 | 117.39683 | 22588 ft | 474 kts | 153° |
| 2026-05-07 15:00 | 39.15815 | 117.41863 | 22587 ft | 474 kts | 153° |
| 2026-05-07 15:00 | 39.13082 | 117.44281 | 22566 ft | 481 kts | 141° |
| 2026-05-07 15:00 | 39.11010 | 117.47613 | 22577 ft | 490 kts | 121° |
| 2026-05-07 15:01 | 39.09813 | 117.51733 | 22583 ft | 495 kts | 102° |
| 2026-05-07 15:01 | 39.09475 | 117.56140 | 22598 ft | 497 kts | 94° |
| 2026-05-07 15:01 | 39.09300 | 117.60559 | 22592 ft | 497 kts | 93° |
| 2026-05-07 15:01 | 39.09124 | 117.64986 | 22589 ft | 497 kts | 93° |
| 2026-05-07 15:02 | 39.08925 | 117.69400 | 22587 ft | 496 kts | 94° |
| 2026-05-07 15:02 | 39.08702 | 117.73813 | 22587 ft | 496 kts | 95° |
| 2026-05-07 15:02 | 39.08463 | 117.78229 | 22588 ft | 497 kts | 95° |
| 2026-05-07 15:02 | 39.08215 | 117.82645 | 22588 ft | 497 kts | 95° |
| 2026-05-07 15:03 | 39.07964 | 117.87079 | 22587 ft | 497 kts | 95° |
| 2026-05-07 15:03 | 39.07707 | 117.91535 | 22588 ft | 496 kts | 95° |
| 2026-05-07 15:03 | 39.07451 | 117.95972 | 22588 ft | 497 kts | 95° |
| 2026-05-07 15:03 | 39.07186 | 118.00374 | 22587 ft | 497 kts | 96° |
| 2026-05-07 15:04 | 39.06775 | 118.04789 | 22587 ft | 496 kts | 99° |
| 2026-05-07 15:04 | 39.06188 | 118.09098 | 22588 ft | 495 kts | 102° |
| 2026-05-07 15:04 | 39.05520 | 118.13482 | 22588 ft | 495 kts | 103° |
| 2026-05-07 15:04 | 39.04829 | 118.17773 | 22587 ft | 495 kts | 103° |
| 2026-05-07 15:05 | 39.04123 | 118.22094 | 22587 ft | 495 kts | 103° |
| 2026-05-07 15:05 | 39.03415 | 118.26432 | 22587 ft | 496 kts | 103° |
| 2026-05-07 15:05 | 39.02712 | 118.30754 | 22587 ft | 495 kts | 103° |
| 2026-05-07 15:05 | 39.02010 | 118.35090 | 22587 ft | 495 kts | 103° |
| 2026-05-07 15:06 | 39.01311 | 118.39417 | 22588 ft | 496 kts | 103° |
| 2026-05-07 15:06 | 39.00618 | 118.43696 | 22587 ft | 496 kts | 103° |
| 2026-05-07 15:06 | 38.99915 | 118.48018 | 22587 ft | 496 kts | 103° |
| 2026-05-07 15:06 | 38.99210 | 118.52347 | 22588 ft | 495 kts | 103° |
| 2026-05-07 15:07 | 38.98508 | 118.56668 | 22587 ft | 495 kts | 103° |
| 2026-05-07 15:07 | 38.97804 | 118.61005 | 22588 ft | 496 kts | 102° |
| 2026-05-07 15:07 | 38.97098 | 118.65344 | 22587 ft | 496 kts | 103° |
| 2026-05-07 15:07 | 38.96394 | 118.69662 | 22586 ft | 496 kts | 103° |
| 2026-05-07 15:08 | 38.95693 | 118.73953 | 22587 ft | 495 kts | 103° |
| 2026-05-07 15:08 | 38.94987 | 118.78262 | 22587 ft | 495 kts | 103° |
| 2026-05-07 15:08 | 38.94270 | 118.82631 | 22587 ft | 495 kts | 103° |
| 2026-05-07 15:08 | 38.93564 | 118.86920 | 22587 ft | 495 kts | 103° |
| 2026-05-07 15:09 | 38.92855 | 118.91223 | 22587 ft | 495 kts | 103° |
| 2026-05-07 15:09 | 38.92139 | 118.95556 | 22587 ft | 495 kts | 103° |
| 2026-05-07 15:09 | 38.91428 | 118.99841 | 22587 ft | 495 kts | 103° |
| 2026-05-07 15:09 | 38.90709 | 119.04161 | 22587 ft | 495 kts | 103° |
| 2026-05-07 15:10 | 38.89987 | 119.08474 | 22587 ft | 496 kts | 103° |
| 2026-05-07 15:10 | 38.89263 | 119.12788 | 22587 ft | 495 kts | 103° |
| 2026-05-07 15:10 | 38.88537 | 119.17106 | 22587 ft | 496 kts | 103° |
| 2026-05-07 15:10 | 38.87817 | 119.21387 | 22587 ft | 495 kts | 103° |
| 2026-05-07 15:11 | 38.87087 | 119.25717 | 22587 ft | 495 kts | 103° |
| 2026-05-07 15:11 | 38.86358 | 119.30026 | 22587 ft | 495 kts | 103° |
| 2026-05-07 15:11 | 38.85627 | 119.34351 | 22587 ft | 495 kts | 103° |
| 2026-05-07 15:11 | 38.84906 | 119.38598 | 22587 ft | 495 kts | 103° |
| 2026-05-07 15:12 | 38.84171 | 119.42914 | 22587 ft | 495 kts | 103° |
| 2026-05-07 15:12 | 38.83435 | 119.47232 | 22587 ft | 495 kts | 103° |
| 2026-05-07 15:12 | 38.82701 | 119.51526 | 22587 ft | 495 kts | 103° |
| 2026-05-07 15:12 | 38.81965 | 119.55827 | 22587 ft | 496 kts | 103° |
| 2026-05-07 15:13 | 38.81226 | 119.60135 | 22587 ft | 496 kts | 103° |
| 2026-05-07 15:13 | 38.80486 | 119.64439 | 22587 ft | 495 kts | 103° |
| 2026-05-07 15:13 | 38.79742 | 119.68759 | 22586 ft | 495 kts | 104° |
| 2026-05-07 15:13 | 38.78994 | 119.73083 | 22587 ft | 495 kts | 104° |
| 2026-05-07 15:14 | 38.78247 | 119.77335 | 22586 ft | 495 kts | 105° |
| 2026-05-07 15:14 | 38.77081 | 119.81444 | 22577 ft | 491 kts | 119° |
| 2026-05-07 15:14 | 38.75229 | 119.85072 | 22583 ft | 486 kts | 133° |
| 2026-05-07 15:14 | 38.72841 | 119.88090 | 22594 ft | 480 kts | 142° |
| 2026-05-07 15:15 | 38.70305 | 119.90848 | 22591 ft | 480 kts | 144° |
| 2026-05-07 15:15 | 38.67787 | 119.93648 | 22588 ft | 482 kts | 141° |
| 2026-05-07 15:15 | 38.65414 | 119.96658 | 22588 ft | 484 kts | 137° |
| 2026-05-07 15:15 | 38.63191 | 119.99884 | 22587 ft | 485 kts | 133° |
| 2026-05-07 15:16 | 38.61074 | 120.03288 | 22588 ft | 486 kts | 131° |
| 2026-05-07 15:16 | 38.59020 | 120.06663 | 22587 ft | 486 kts | 131° |
| 2026-05-07 15:16 | 38.56938 | 120.10081 | 22587 ft | 486 kts | 131° |
| 2026-05-07 15:16 | 38.54952 | 120.13592 | 22573 ft | 489 kts | 124° |
| 2026-05-07 15:17 | 38.53391 | 120.17417 | 22337 ft | 485 kts | 115° |
| 2026-05-07 15:17 | 38.52329 | 120.21462 | 21660 ft | 484 kts | 105° |
| 2026-05-07 15:17 | 38.51624 | 120.25642 | 20921 ft | 481 kts | 102° |
| 2026-05-07 15:17 | 38.51008 | 120.29792 | 20259 ft | 475 kts | 102° |
| 2026-05-07 15:18 | 38.50386 | 120.33899 | 19605 ft | 470 kts | 102° |
| 2026-05-07 15:18 | 38.49752 | 120.37944 | 18941 ft | 465 kts | 102° |
| 2026-05-07 15:18 | 38.49106 | 120.41960 | 18288 ft | 459 kts | 103° |
| 2026-05-07 15:18 | 38.48465 | 120.45879 | 17641 ft | 454 kts | 103° |
| 2026-05-07 15:19 | 38.47813 | 120.49829 | 16969 ft | 450 kts | 102° |
| 2026-05-07 15:19 | 38.47174 | 120.53700 | 16298 ft | 446 kts | 102° |
| 2026-05-07 15:19 | 38.46550 | 120.57539 | 15617 ft | 442 kts | 102° |
| 2026-05-07 15:19 | 38.45934 | 120.61334 | 14955 ft | 438 kts | 102° |
| 2026-05-07 15:20 | 38.45319 | 120.65124 | 14301 ft | 435 kts | 102° |
| 2026-05-07 15:20 | 38.44717 | 120.68828 | 13637 ft | 431 kts | 102° |
| 2026-05-07 15:20 | 38.44112 | 120.72555 | 12963 ft | 428 kts | 102° |
| 2026-05-07 15:20 | 38.43514 | 120.76228 | 12333 ft | 424 kts | 102° |
| 2026-05-07 15:21 | 38.42916 | 120.79885 | 11698 ft | 420 kts | 102° |
| 2026-05-07 15:21 | 38.42328 | 120.83478 | 11105 ft | 415 kts | 102° |
| 2026-05-07 15:21 | 38.41738 | 120.87072 | 10754 ft | 413 kts | 102° |
| 2026-05-07 15:21 | 38.41149 | 120.90641 | 10691 ft | 414 kts | 102° |
| 2026-05-07 15:22 | 38.40586 | 120.94240 | 10681 ft | 413 kts | 99° |
| 2026-05-07 15:22 | 38.40403 | 120.97851 | 10527 ft | 402 kts | 88° |
| 2026-05-07 15:22 | 38.40693 | 121.01299 | 10302 ft | 388 kts | 78° |
| 2026-05-07 15:22 | 38.41318 | 121.04581 | 10083 ft | 374 kts | 73° |
| 2026-05-07 15:23 | 38.42001 | 121.07684 | 9877 ft | 362 kts | 73° |
| 2026-05-07 15:23 | 38.42668 | 121.10717 | 9793 ft | 346 kts | 73° |
| 2026-05-07 15:23 | 38.43288 | 121.13593 | 9786 ft | 329 kts | 73° |
| 2026-05-07 15:23 | 38.43870 | 121.16342 | 9784 ft | 316 kts | 73° |
| 2026-05-07 15:24 | 38.44438 | 121.19047 | 9788 ft | 316 kts | 73° |
| 2026-05-07 15:24 | 38.45001 | 121.21747 | 9724 ft | 312 kts | 73° |
| 2026-05-07 15:24 | 38.45555 | 121.24417 | 9359 ft | 311 kts | 73° |
| 2026-05-07 15:24 | 38.46137 | 121.27076 | 8968 ft | 310 kts | 71° |
| 2026-05-07 15:25 | 38.46862 | 121.29614 | 8629 ft | 307 kts | 65° |
| 2026-05-07 15:25 | 38.47768 | 121.32063 | 8288 ft | 303 kts | 60° |
| 2026-05-07 15:25 | 38.48748 | 121.34419 | 7952 ft | 300 kts | 59° |
| 2026-05-07 15:25 | 38.49731 | 121.36745 | 7606 ft | 298 kts | 59° |
| 2026-05-07 15:26 | 38.50707 | 121.39059 | 7273 ft | 295 kts | 60° |
| 2026-05-07 15:26 | 38.51677 | 121.41376 | 6932 ft | 293 kts | 60° |
| 2026-05-07 15:26 | 38.52627 | 121.43656 | 6590 ft | 290 kts | 60° |
| 2026-05-07 15:26 | 38.53563 | 121.45910 | 6254 ft | 288 kts | 60° |
| 2026-05-07 15:27 | 38.54493 | 121.48154 | 5922 ft | 285 kts | 60° |
| 2026-05-07 15:27 | 38.55420 | 121.50394 | 5796 ft | 283 kts | 60° |
| 2026-05-07 15:27 | 38.56342 | 121.52622 | 5792 ft | 284 kts | 60° |
| 2026-05-07 15:27 | 38.57254 | 121.54830 | 5791 ft | 285 kts | 60° |
| 2026-05-07 15:28 | 38.58184 | 121.57087 | 5790 ft | 283 kts | 60° |
| 2026-05-07 15:28 | 38.59070 | 121.59235 | 5706 ft | 271 kts | 60° |
| 2026-05-07 15:28 | 38.60149 | 121.61155 | 5531 ft | 260 kts | 40° |
| 2026-05-07 15:28 | 38.61593 | 121.62432 | 5375 ft | 248 kts | 24° |
| 2026-05-07 15:29 | 38.63133 | 121.63351 | 5180 ft | 242 kts | 21° |
| 2026-05-07 15:29 | 38.64682 | 121.64225 | 4892 ft | 241 kts | 21° |
| 2026-05-07 15:29 | 38.66218 | 121.65097 | 4604 ft | 240 kts | 22° |
| 2026-05-07 15:29 | 38.67724 | 121.65965 | 4318 ft | 238 kts | 23° |
| 2026-05-07 15:30 | 38.69230 | 121.66844 | 4033 ft | 237 kts | 23° |
| 2026-05-07 15:30 | 38.70721 | 121.67722 | 3826 ft | 232 kts | 23° |
| 2026-05-07 15:30 | 38.72170 | 121.68578 | 3660 ft | 225 kts | 24° |
| 2026-05-07 15:30 | 38.73572 | 121.69405 | 3415 ft | 223 kts | 24° |
| 2026-05-07 15:31 | 38.74978 | 121.70237 | 3146 ft | 222 kts | 24° |
| 2026-05-07 15:31 | 38.76369 | 121.71062 | 2925 ft | 219 kts | 24° |
| 2026-05-07 15:31 | 38.77765 | 121.71890 | 2896 ft | 220 kts | 24° |
| 2026-05-07 15:31 | 38.79144 | 121.72708 | 2893 ft | 221 kts | 24° |
| 2026-05-07 15:32 | 38.80559 | 121.73549 | 2892 ft | 221 kts | 24° |
| 2026-05-07 15:32 | 38.81945 | 121.74372 | 2891 ft | 221 kts | 24° |
| 2026-05-07 15:32 | 38.83343 | 121.75202 | 2891 ft | 221 kts | 24° |
| 2026-05-07 15:32 | 38.84742 | 121.76035 | 2891 ft | 221 kts | 23° |
| 2026-05-07 15:33 | 38.86167 | 121.76645 | 2811 ft | 211 kts | 9° |
| 2026-05-07 15:33 | 38.87589 | 121.76883 | 2670 ft | 204 kts | 5° |
| 2026-05-07 15:33 | 38.89004 | 121.77048 | 2462 ft | 200 kts | 5° |
| 2026-05-07 15:33 | 38.90356 | 121.77205 | 2363 ft | 188 kts | 5° |
| 2026-05-07 15:34 | 38.91626 | 121.77321 | 2188 ft | 179 kts | 357° |
| 2026-05-07 15:34 | 38.92734 | 121.76753 | 1986 ft | 169 kts | 316° |
| 2026-05-07 15:34 | 38.93429 | 121.75627 | 1888 ft | 154 kts | 303° |
| 2026-05-07 15:34 | 38.94006 | 121.74481 | 1886 ft | 153 kts | 302° |
| 2026-05-07 15:35 | 38.94562 | 121.73317 | 1910 ft | 153 kts | 297° |
| 2026-05-07 15:35 | 38.94951 | 121.72053 | 1903 ft | 153 kts | 285° |
| 2026-05-07 15:35 | 38.95186 | 121.70709 | 1895 ft | 153 kts | 281° |
| 2026-05-07 15:35 | 38.95363 | 121.69363 | 1893 ft | 153 kts | 278° |
| 2026-05-07 15:36 | 38.95498 | 121.68010 | 1893 ft | 153 kts | 276° |
| 2026-05-07 15:36 | 38.95605 | 121.66672 | 1778 ft | 150 kts | 275° |
| 2026-05-07 15:36 | 38.95700 | 121.65383 | 1569 ft | 139 kts | 275° |
| 2026-05-07 15:36 | 38.95789 | 121.64157 | 1402 ft | 137 kts | 276° |
| 2026-05-07 15:37 | 38.95879 | 121.62944 | 1235 ft | 137 kts | 276° |
| 2026-05-07 15:37 | 38.95970 | 121.61735 | 1067 ft | 136 kts | 276° |
| 2026-05-07 15:37 | 38.96061 | 121.60525 | 893 ft | 135 kts | 276° |
| 2026-05-07 15:37 | 38.96152 | 121.59323 | 716 ft | 134 kts | 276° |
| 2026-05-07 15:38 | 38.96243 | 121.58131 | 540 ft | 134 kts | 277° |
| 2026-05-07 15:38 | 38.96337 | 121.56943 | 366 ft | 133 kts | 276° |
| 2026-05-07 15:38 | 38.96425 | 121.55777 | 197 ft | 132 kts | 276° |
| 2026-05-07 15:38 | 38.96510 | 121.54625 | 114 ft | 122 kts | 277° |
| 2026-05-07 15:39 | 38.96580 | 121.53713 | 113 ft | 78 kts | 275° |
| 2026-05-07 15:39 | 38.96556 | 121.53284 | 113 ft | 24 kts | 242° |
| 2026-05-07 15:39 | 38.96498 | 121.53126 | 113 ft | 14 kts | 245° |
| 2026-05-07 15:39 | 38.96421 | 121.53094 | 113 ft | 8 kts | 140° |
| 2026-05-07 15:40 | 38.96411 | 121.53175 | 113 ft | 10 kts | 90° |
| 2026-05-07 15:40 | 38.96411 | 121.53271 | 113 ft | 11 kts | 86° |
| 2026-05-07 15:40 | 38.96415 | 121.53377 | 113 ft | 12 kts | 89° |
| 2026-05-07 15:40 | 38.96409 | 121.53490 | 113 ft | 13 kts | 96° |
| 2026-05-07 15:41 | 38.96399 | 121.53610 | 113 ft | 13 kts | 96° |
| 2026-05-07 15:41 | 38.96388 | 121.53736 | 113 ft | 14 kts | 101° |
| 2026-05-07 15:41 | 38.96311 | 121.53770 | 113 ft | 13 kts | 184° |
| 2026-05-07 15:41 | 38.96243 | 121.53767 | 113 ft | 0 kts | 183° |
| 2026-05-07 16:01 | 38.96254 | 121.53767 | 113 ft | 2 kts | 183° |
| 2026-05-07 16:01 | 38.96269 | 121.53768 | 113 ft | 2 kts | 184° |
| 2026-05-07 16:02 | 38.96284 | 121.53770 | 113 ft | 2 kts | 183° |
| 2026-05-07 16:02 | 38.96299 | 121.53770 | 113 ft | 2 kts | 183° |
| 2026-05-07 16:02 | 38.96309 | 121.53771 | 113 ft | 2 kts | 181° |
| 2026-05-07 16:02 | 38.96322 | 121.53764 | 113 ft | 2 kts | 135° |
| 2026-05-07 16:03 | 38.96330 | 121.53749 | 113 ft | 0 kts | 100° |
| 2026-05-07 16:03 | 38.96330 | 121.53741 | 113 ft | 1 kts | 92° |
| 2026-05-07 16:03 | 38.96330 | 121.53738 | 113 ft | 0 kts | 95° |
| 2026-05-07 16:05 | 38.96343 | 121.53766 | 113 ft | 7 kts | 31° |
| 2026-05-07 16:05 | 38.96381 | 121.53796 | 113 ft | 5 kts | 96° |
| 2026-05-07 16:05 | 38.96375 | 121.53889 | 113 ft | 15 kts | 93° |
| 2026-05-07 16:06 | 38.96366 | 121.54067 | 113 ft | 24 kts | 96° |
| 2026-05-07 16:06 | 38.96349 | 121.54281 | 113 ft | 23 kts | 95° |
| 2026-05-07 16:06 | 38.96333 | 121.54487 | 113 ft | 22 kts | 96° |
| 2026-05-07 16:06 | 38.96318 | 121.54685 | 113 ft | 22 kts | 96° |
| 2026-05-07 16:07 | 38.96303 | 121.54879 | 113 ft | 21 kts | 98° |
| 2026-05-07 16:07 | 38.96266 | 121.55061 | 113 ft | 20 kts | 99° |
| 2026-05-07 16:07 | 38.96252 | 121.55244 | 113 ft | 20 kts | 95° |
| 2026-05-07 16:07 | 38.96238 | 121.55423 | 113 ft | 19 kts | 95° |
| 2026-05-07 16:08 | 38.96250 | 121.55554 | 113 ft | 11 kts | 27° |
| 2026-05-07 16:08 | 38.96355 | 121.55570 | 113 ft | 21 kts | 5° |
| 2026-05-07 16:08 | 38.96439 | 121.55540 | 113 ft | 10 kts | 289° |
| 2026-05-07 16:08 | 38.96455 | 121.55329 | 113 ft | 51 kts | 277° |
| 2026-05-07 16:09 | 38.96514 | 121.54558 | 113 ft | 119 kts | 276° |
| 2026-05-07 16:09 | 38.96614 | 121.53252 | 159 ft | 167 kts | 276° |
| 2026-05-07 16:09 | 38.96730 | 121.51778 | 675 ft | 172 kts | 276° |
| 2026-05-07 16:09 | 38.96856 | 121.50217 | 1232 ft | 181 kts | 276° |
| 2026-05-07 16:10 | 38.96992 | 121.48603 | 1942 ft | 182 kts | 276° |
| 2026-05-07 16:10 | 38.97124 | 121.46979 | 2437 ft | 193 kts | 276° |
| 2026-05-07 16:10 | 38.97266 | 121.45193 | 2839 ft | 210 kts | 276° |
| 2026-05-07 16:10 | 38.97419 | 121.43261 | 3211 ft | 230 kts | 276° |
| 2026-05-07 16:11 | 38.97576 | 121.41122 | 3619 ft | 250 kts | 276° |
| 2026-05-07 16:11 | 38.97741 | 121.38838 | 4213 ft | 263 kts | 276° |
| 2026-05-07 16:11 | 38.97798 | 121.36501 | 5048 ft | 266 kts | 266° |
| 2026-05-07 16:11 | 38.97484 | 121.34184 | 5943 ft | 267 kts | 256° |
| 2026-05-07 16:12 | 38.96978 | 121.31916 | 6844 ft | 268 kts | 254° |
| 2026-05-07 16:12 | 38.96447 | 121.29648 | 7758 ft | 268 kts | 254° |